SLC weather

Salt Lake City International Airport
Salt Lake City, Utah, United States

Public forecast

Using degrees Fahrenheit for public forecast. Weather courtesy of forecast.io.

METAR (pilot weather report)

Retrieved 2018/08/16 04:54 UTC (9 minutes ago):

KSLC 160454Z 20004KT 10SM FEW090 BKN140 BKN190 28/08 A3006 RMK AO2 SLP117 T02780078

TAF (pilot weather forecast)

Forecast is more than 12 hours old.

Retrieved 2018/08/15 00:36 UTC (1 day ago):

TAF KSLC 152333Z 1600/1706 33006KT P6SM VCSH SCT090 SCT180 FM160300 16009KT P6SM SCT120 SCT180 FM162000 33008KT P6SM SCT120 SCT200 FM170300 15006KT P6SM FEW120